createdAt,value
2022-09-24T00:00:36.050Z,3.17
2022-09-24T00:06:30.559Z,3.53
2022-09-24T00:12:26.212Z,3.90
2022-09-24T00:18:22.257Z,3.77
2022-09-24T00:24:36.717Z,3.50
2022-09-24T00:30:31.405Z,2.80
2022-09-24T00:36:24.659Z,2.97
2022-09-24T00:42:20.673Z,3.03
2022-09-24T00:48:15.387Z,3.23
2022-09-24T00:54:13.192Z,3.27
2022-09-24T01:00:08.331Z,4.00
2022-09-24T01:06:03.211Z,4.67
2022-09-24T01:12:04.242Z,4.50
2022-09-24T01:18:05.055Z,4.70
2022-09-24T01:24:16.800Z,4.23
2022-09-24T01:30:13.133Z,3.87
2022-09-24T01:36:09.770Z,3.73
2022-09-24T01:42:03.396Z,3.80
2022-09-24T01:47:58.076Z,4.80
2022-09-24T01:53:56.006Z,4.37
2022-09-24T01:59:55.581Z,4.40
2022-09-24T02:05:56.236Z,4.83
2022-09-24T02:11:53.054Z,5.13
2022-09-24T02:17:51.048Z,4.30
2022-09-24T02:23:49.233Z,4.60
2022-09-24T02:29:42.617Z,5.37
2022-09-24T02:35:39.583Z,4.70
2022-09-24T02:41:34.895Z,4.30
2022-09-24T02:47:29.307Z,4.70
2022-09-24T02:53:22.266Z,4.43
2022-09-24T02:59:17.073Z,4.70
2022-09-24T03:05:11.340Z,4.30
2022-09-24T03:11:04.384Z,4.07
2022-09-24T03:16:58.613Z,4.23
2022-09-24T03:22:52.683Z,4.07
2022-09-24T03:28:46.234Z,5.37
2022-09-24T03:34:40.477Z,4.70
2022-09-24T03:40:33.417Z,5.20
2022-09-24T03:46:28.734Z,6.60
2022-09-24T03:52:22.986Z,6.30
2022-09-24T03:58:16.890Z,5.80
2022-09-24T04:04:10.153Z,6.00
2022-09-24T04:10:05.329Z,5.03
2022-09-24T04:16:03.317Z,5.77
2022-09-24T04:21:56.680Z,5.07
2022-09-24T04:27:56.144Z,5.37
2022-09-24T04:33:49.425Z,5.37
2022-09-24T04:39:42.273Z,5.50
2022-09-24T04:45:39.620Z,5.90
2022-09-24T04:51:35.935Z,5.67
2022-09-24T04:57:33.443Z,5.10
2022-09-24T05:03:27.640Z,6.33
2022-09-24T05:09:20.497Z,8.13
2022-09-24T05:15:14.265Z,6.83
2022-09-24T05:21:09.284Z,8.30
2022-09-24T05:27:11.703Z,7.67
2022-09-24T05:33:05.108Z,7.23
2022-09-24T05:38:59.704Z,7.67
2022-09-24T05:44:52.600Z,8.40
2022-09-24T05:50:45.777Z,7.60
2022-09-24T05:56:40.446Z,9.77
2022-09-24T06:02:33.369Z,11.10
2022-09-24T06:08:27.052Z,11.80
2022-09-24T06:14:21.317Z,10.20
2022-09-24T06:20:15.161Z,11.50
2022-09-24T06:26:10.942Z,7.70
2022-09-24T06:32:05.452Z,12.93
2022-09-24T06:37:58.475Z,9.17
2022-09-24T06:43:54.683Z,9.20
2022-09-24T06:49:50.656Z,12.20
2022-09-24T06:55:43.906Z,12.03
2022-09-24T07:01:37.966Z,10.90
2022-09-24T07:07:34.688Z,11.23
2022-09-24T07:13:34.419Z,9.93
2022-09-24T07:19:27.433Z,10.10
2022-09-24T07:25:22.070Z,10.97
2022-09-24T07:31:15.091Z,10.40
2022-09-24T07:37:08.511Z,10.27
2022-09-24T07:43:03.111Z,9.60
2022-09-24T07:48:57.164Z,11.00
2022-09-24T07:54:52.218Z,10.83
2022-09-24T08:00:46.494Z,10.27
2022-09-24T08:06:43.649Z,11.30
2022-09-24T08:12:39.530Z,9.87
2022-09-24T08:18:35.105Z,9.73
2022-09-24T08:24:27.969Z,10.47
2022-09-24T08:30:21.713Z,10.73
2022-09-24T08:36:16.335Z,10.87
2022-09-24T08:42:16.239Z,10.30
2022-09-24T08:48:15.674Z,11.50
2022-09-24T08:54:14.790Z,12.47
2022-09-24T09:00:14.208Z,14.80
2022-09-24T09:06:14.212Z,13.30
2022-09-24T09:12:16.294Z,12.10
2022-09-24T09:18:16.115Z,13.67
2022-09-24T09:24:18.007Z,12.40
2022-09-24T09:30:18.398Z,10.63
2022-09-24T09:36:27.712Z,13.20
2022-09-24T09:42:29.986Z,12.57
2022-09-24T09:48:29.220Z,12.57
2022-09-24T09:54:22.551Z,12.90
2022-09-24T10:00:33.947Z,14.13
2022-09-24T10:06:31.632Z,14.70
2022-09-24T10:12:24.914Z,14.80
2022-09-24T10:18:19.184Z,14.50
2022-09-24T10:24:18.471Z,15.20
2022-09-24T10:30:33.777Z,14.57
2022-09-24T10:36:29.118Z,15.03
2022-09-24T10:42:27.604Z,15.13
2022-09-24T10:48:24.484Z,15.53
2022-09-24T10:54:36.343Z,14.33
2022-09-24T11:00:39.268Z,13.93
2022-09-24T11:06:47.240Z,14.73
2022-09-24T11:12:50.691Z,15.33
2022-09-24T11:18:54.573Z,15.00
2022-09-24T11:25:08.014Z,15.17
2022-09-24T11:31:08.728Z,15.40
2022-09-24T11:37:18.734Z,14.67
2022-09-24T11:43:36.419Z,12.20
2022-09-24T11:49:44.633Z,13.07
2022-09-24T11:55:44.543Z,12.30
2022-09-24T12:01:41.297Z,13.70
2022-09-24T12:07:40.556Z,11.20
2022-09-24T12:13:39.694Z,12.93
2022-09-24T12:19:37.898Z,11.33
2022-09-24T12:25:35.670Z,12.33
2022-09-24T12:31:58.400Z,12.00
2022-09-24T12:37:56.518Z,12.90
2022-09-24T12:43:53.584Z,13.70
2022-09-24T12:49:55.666Z,14.77
2022-09-24T12:55:49.054Z,13.43
2022-09-24T13:01:42.790Z,13.57
2022-09-24T13:07:40.899Z,12.77
2022-09-24T13:13:41.207Z,11.83
2022-09-24T13:19:39.084Z,12.97
2022-09-24T13:25:33.701Z,13.17
2022-09-24T13:31:56.199Z,11.70
2022-09-24T13:37:55.651Z,13.50
2022-09-24T13:43:54.085Z,11.77
2022-09-24T13:49:49.778Z,12.80
2022-09-24T13:55:47.713Z,14.30
2022-09-24T14:01:43.547Z,15.30
2022-09-24T14:07:37.460Z,13.27
2022-09-24T14:13:30.728Z,13.63
2022-09-24T14:19:25.472Z,14.77
2022-09-24T14:25:23.630Z,15.27
2022-09-24T14:31:17.023Z,14.63
2022-09-24T14:37:18.267Z,15.23
2022-09-24T14:43:19.007Z,17.63
2022-09-24T14:49:21.744Z,17.00
2022-09-24T14:55:19.655Z,17.23
2022-09-24T15:01:17.736Z,16.30
2022-09-24T15:07:16.511Z,16.23
2022-09-24T15:13:22.426Z,15.80
2022-09-24T15:19:19.891Z,15.80
2022-09-24T15:25:16.135Z,14.40
2022-09-24T15:31:10.582Z,15.63
2022-09-24T15:37:03.664Z,13.63
2022-09-24T15:42:56.532Z,15.10
2022-09-24T15:48:51.189Z,13.57
2022-09-24T15:54:44.476Z,13.17
2022-09-24T16:00:38.033Z,13.30
2022-09-24T16:06:32.246Z,14.97
2022-09-24T16:12:27.948Z,14.30
2022-09-24T16:18:22.149Z,14.27
2022-09-24T16:24:16.732Z,15.90
2022-09-24T16:30:10.598Z,17.17
2022-09-24T16:36:06.508Z,14.57
2022-09-24T16:42:01.533Z,16.80
2022-09-24T16:47:54.809Z,15.90
2022-09-24T16:53:49.130Z,16.10
2022-09-24T16:59:43.840Z,14.70
2022-09-24T17:05:40.927Z,17.93
2022-09-24T17:11:34.793Z,17.20
2022-09-24T17:17:30.365Z,14.37
2022-09-24T17:23:23.286Z,16.00
2022-09-24T17:29:18.659Z,14.10
2022-09-24T17:35:13.810Z,13.33
2022-09-24T17:41:09.832Z,17.10
2022-09-24T17:47:03.270Z,14.87
2022-09-24T17:52:59.154Z,13.80
2022-09-24T17:58:53.518Z,12.23
2022-09-24T18:04:47.374Z,13.80
2022-09-24T18:10:42.034Z,11.90
2022-09-24T18:16:36.052Z,12.10
2022-09-24T18:22:28.958Z,13.20
2022-09-24T18:28:23.753Z,15.00
2022-09-24T18:34:18.630Z,16.00
2022-09-24T18:40:12.944Z,14.27
2022-09-24T18:46:09.558Z,13.80
2022-09-24T18:52:03.260Z,12.30
2022-09-24T18:57:57.358Z,11.30
2022-09-24T19:03:52.145Z,11.00
2022-09-24T19:09:45.367Z,10.70
2022-09-24T19:15:40.412Z,10.40
2022-09-24T19:21:35.127Z,11.70
2022-09-24T19:27:29.523Z,11.97
2022-09-24T19:33:22.407Z,13.10
2022-09-24T19:39:18.722Z,9.70
2022-09-24T19:45:12.071Z,12.90
2022-09-24T19:51:07.214Z,11.40
2022-09-24T19:57:01.797Z,10.90
2022-09-24T20:02:55.186Z,13.73
2022-09-24T20:08:48.137Z,13.53
2022-09-24T20:14:42.734Z,12.40
2022-09-24T20:20:36.093Z,12.93
2022-09-24T20:26:46.842Z,12.30
2022-09-24T20:32:44.527Z,11.90
2022-09-24T20:38:38.314Z,12.07
2022-09-24T20:44:31.570Z,12.33
2022-09-24T20:50:26.163Z,13.03
2022-09-24T20:56:19.695Z,12.70
2022-09-24T21:02:13.112Z,11.50
2022-09-24T21:08:08.924Z,11.30
2022-09-24T21:14:03.248Z,10.13
2022-09-24T21:19:56.727Z,10.87
2022-09-24T21:25:54.508Z,14.00
2022-09-24T21:31:49.319Z,11.10
2022-09-24T21:37:42.626Z,15.50
2022-09-24T21:43:37.457Z,13.03
2022-09-24T21:49:36.920Z,10.23
2022-09-24T21:55:30.270Z,12.07
2022-09-24T22:01:28.055Z,10.13
2022-09-24T22:07:20.947Z,13.40
2022-09-24T22:13:15.283Z,10.67
2022-09-24T22:19:10.528Z,9.70
2022-09-24T22:25:03.366Z,10.40
2022-09-24T22:30:59.217Z,12.27
2022-09-24T22:36:53.570Z,10.93
2022-09-24T22:42:46.801Z,11.03
2022-09-24T22:48:40.917Z,14.10
2022-09-24T22:54:35.606Z,13.93
2022-09-24T23:00:28.850Z,12.03
2022-09-24T23:06:22.557Z,12.83
2022-09-24T23:12:17.119Z,10.47
2022-09-24T23:18:09.960Z,11.60
2022-09-24T23:24:06.115Z,12.90
2022-09-24T23:30:01.738Z,12.70
2022-09-24T23:35:55.556Z,13.40
2022-09-24T23:41:49.246Z,10.87
2022-09-24T23:47:43.834Z,14.10
2022-09-24T23:53:37.961Z,14.17
2022-09-24T23:59:31.634Z,15.13
